Time;durP1;ratioP1;P1;durP2;ratioP2;P2;SDS_P1;SDS_P2;PMS_P1;PMS_P2;Temp;Humidity;BMP_temperature;BMP_pressure;BME280_temperature;BME280_humidity;BME280_pressure;Samples;Min_cycle;Max_cycle;Signal;HPM_P1;HPM_P2
2022/01/03 00:00:39;;;;;;;3.57;1.80;;;;;;;-141.59;100.00;61776.25;5046938;28;20237;-87
2022/01/03 00:03:12;;;;;;;2.70;1.73;;;;;;;-141.59;100.00;61776.25;5058740;28;20202;-87
2022/01/03 00:05:39;;;;;;;3.67;1.87;;;;;;;-141.59;100.00;61776.25;5025931;28;20214;-86
2022/01/03 00:08:07;;;;;;;2.67;2.00;;;;;;;-141.59;100.00;61776.25;5052954;28;20210;-86
2022/01/03 00:10:35;;;;;;;3.70;1.97;;;;;;;-141.59;100.00;61776.25;5041551;28;20236;-87
2022/01/03 00:13:04;;;;;;;1.97;1.70;;;;;;;-141.59;100.00;61776.25;5018181;28;20274;-87
2022/01/03 00:15:31;;;;;;;5.50;1.80;;;;;;;-141.59;100.00;61776.25;5049597;28;20203;-87
2022/01/03 00:17:58;;;;;;;4.30;1.80;;;;;;;-141.59;100.00;61776.25;5052668;28;20205;-86
2022/01/03 00:20:28;;;;;;;5.33;1.83;;;;;;;-141.59;100.00;61776.25;5025223;28;20213;-87
2022/01/03 00:23:01;;;;;;;2.67;1.87;;;;;;;-141.59;100.00;61776.25;5025903;28;20210;-86
2022/01/03 00:25:29;;;;;;;2.30;1.80;;;;;;;-141.59;100.00;61776.25;5026184;28;20221;-88
2022/01/03 00:28:03;;;;;;;2.83;1.90;;;;;;;-141.59;100.00;61776.25;5044807;28;20203;-86
2022/01/03 00:30:37;;;;;;;2.70;2.23;;;;;;;-141.59;100.00;61776.25;5052177;28;20212;-87
2022/01/03 00:33:06;;;;;;;3.03;1.83;;;;;;;-141.59;100.00;61776.25;5013317;28;20203;-88
2022/01/03 00:35:42;;;;;;;2.20;2.00;;;;;;;-141.59;100.00;61776.25;5057072;28;20216;-88
2022/01/03 00:38:11;;;;;;;3.10;1.80;;;;;;;-141.59;100.00;61776.25;5042429;28;20247;-87
2022/01/03 00:40:40;;;;;;;2.63;1.80;;;;;;;-141.59;100.00;61776.25;5060014;28;20306;-87
2022/01/03 00:43:19;;;;;;;2.57;1.80;;;;;;;-141.59;100.00;61776.25;5033704;28;20202;-87
2022/01/03 00:45:51;;;;;;;2.40;1.70;;;;;;;-141.59;100.00;61776.25;5040545;28;20308;-87
2022/01/03 00:48:19;;;;;;;2.40;2.10;;;;;;;-141.59;100.00;61776.25;5034637;28;20213;-87
2022/01/03 00:50:48;;;;;;;2.90;2.00;;;;;;;-141.59;100.00;61776.25;5060955;28;20215;-87
2022/01/03 00:53:16;;;;;;;2.50;1.97;;;;;;;-141.59;100.00;61776.25;5025309;28;20199;-88
2022/01/03 00:56:02;;;;;;;3.40;2.20;;;;;;;-141.59;100.00;61776.25;5043879;28;20200;-88
2022/01/03 00:58:36;;;;;;;6.93;2.73;;;;;;;-141.59;100.00;61776.25;5053720;28;20229;-88
2022/01/03 01:01:05;;;;;;;3.50;2.47;;;;;;;-141.59;100.00;61776.25;5045537;28;20327;-88
2022/01/03 01:03:35;;;;;;;2.83;2.03;;;;;;;-141.59;100.00;61776.25;5030854;28;20202;-87
2022/01/03 01:06:06;;;;;;;3.63;2.40;;;;;;;-141.59;100.00;61776.25;5060935;28;20258;-87
2022/01/03 01:08:35;;;;;;;3.50;1.80;;;;;;;-141.59;100.00;61776.25;5051934;28;20206;-88
2022/01/03 01:11:05;;;;;;;2.77;2.27;;;;;;;-141.59;100.00;61776.25;5029528;28;20222;-86
2022/01/03 01:13:34;;;;;;;4.03;2.10;;;;;;;-141.59;100.00;61776.25;5031349;28;20209;-87
2022/01/03 01:16:05;;;;;;;3.23;2.13;;;;;;;-141.59;100.00;61776.25;5040467;28;20267;-87
2022/01/03 01:18:37;;;;;;;4.30;2.20;;;;;;;-141.59;100.00;61776.25;5043163;28;20282;-87
2022/01/03 01:21:07;;;;;;;2.97;2.20;;;;;;;-141.59;100.00;61776.25;5026786;28;20207;-87
2022/01/03 01:23:35;;;;;;;2.33;1.90;;;;;;;-141.59;100.00;61776.25;5026535;28;20214;-87
2022/01/03 01:28:49;;;;;;;2.50;2.07;;;;;;;-141.59;100.00;61776.25;5039174;28;20352;-87
2022/01/03 01:31:21;;;;;;;4.87;2.07;;;;;;;-141.59;100.00;61776.25;5038979;28;20222;-86
2022/01/03 01:33:53;;;;;;;3.50;2.20;;;;;;;-141.59;100.00;61776.25;5044792;28;20206;-86
2022/01/03 01:36:26;;;;;;;4.70;1.87;;;;;;;-141.59;100.00;61776.25;5057076;28;20232;-88
2022/01/03 01:39:00;;;;;;;3.47;2.00;;;;;;;-141.59;100.00;61776.25;5053827;28;20206;-87
2022/01/03 01:41:29;;;;;;;3.47;1.70;;;;;;;-141.59;100.00;61776.25;5037917;28;20236;-86
2022/01/03 01:44:03;;;;;;;2.93;2.00;;;;;;;-141.59;100.00;61776.25;5022596;28;20301;-86
2022/01/03 01:46:35;;;;;;;2.83;2.17;;;;;;;-141.59;100.00;61776.25;5012738;28;20217;-86
2022/01/03 01:49:09;;;;;;;3.00;2.00;;;;;;;-141.59;100.00;61776.25;5027693;28;20194;-87
2022/01/03 01:51:51;;;;;;;5.30;1.97;;;;;;;-141.59;100.00;61776.25;5033773;28;20221;-88
2022/01/03 01:54:19;;;;;;;3.03;2.10;;;;;;;-141.59;100.00;61776.25;5026246;28;20210;-87
2022/01/03 01:57:03;;;;;;;2.73;1.80;;;;;;;-141.59;100.00;61776.25;5040600;28;20213;-88
2022/01/03 01:59:41;;;;;;;2.40;1.97;;;;;;;-141.59;100.00;61776.25;5026653;28;20213;-88
2022/01/03 02:02:11;;;;;;;2.80;2.10;;;;;;;-141.59;100.00;61776.25;5031413;28;20230;-89
2022/01/03 02:05:09;;;;;;;3.20;2.10;;;;;;;-141.59;100.00;61776.25;5030791;28;20232;-89
2022/01/03 02:08:08;;;;;;;4.37;2.43;;;;;;;-141.59;100.00;61776.25;5032684;28;20198;-90
2022/01/03 02:10:38;;;;;;;2.17;1.73;;;;;;;-141.59;100.00;61776.25;5042075;28;20207;-89
2022/01/03 02:13:06;;;;;;;2.33;2.00;;;;;;;-141.59;100.00;61776.25;5034041;28;20232;-90
2022/01/03 02:15:37;;;;;;;2.47;1.80;;;;;;;-141.59;100.00;61776.25;5031772;28;20197;-89
2022/01/03 02:18:07;;;;;;;2.13;1.93;;;;;;;-141.59;100.00;61776.25;5037681;28;20210;-89
2022/01/03 02:20:37;;;;;;;2.60;2.00;;;;;;;-141.59;100.00;61776.25;5055763;28;20202;-90
2022/01/03 02:23:12;;;;;;;2.53;1.97;;;;;;;-141.59;100.00;61776.25;5035067;28;20221;-90
2022/01/03 02:25:43;;;;;;;2.80;2.10;;;;;;;-141.59;100.00;61776.25;5052800;28;20209;-90
2022/01/03 02:28:11;;;;;;;3.33;1.80;;;;;;;-141.59;100.00;61776.25;5032851;28;20206;-89
2022/01/03 02:30:39;;;;;;;3.67;2.07;;;;;;;-141.59;100.00;61776.25;5060264;28;20201;-89
2022/01/03 02:33:07;;;;;;;5.80;2.27;;;;;;;-141.59;100.00;61776.25;5029410;28;20214;-89
2022/01/03 02:35:38;;;;;;;6.07;1.90;;;;;;;-141.59;100.00;61776.25;5060053;28;20213;-89
2022/01/03 02:38:07;;;;;;;2.60;1.93;;;;;;;-141.59;100.00;61776.25;5051499;28;20233;-90
2022/01/03 02:40:34;;;;;;;3.07;2.30;;;;;;;-141.59;100.00;61776.25;5039403;28;20203;-90
2022/01/03 02:43:02;;;;;;;3.73;1.90;;;;;;;-141.59;100.00;61776.25;5064309;28;20217;-90
2022/01/03 02:45:32;;;;;;;2.67;1.97;;;;;;;-141.59;100.00;61776.25;5034904;28;20217;-90
2022/01/03 02:48:04;;;;;;;2.40;1.83;;;;;;;-141.59;100.00;61776.25;5060217;28;20198;-89
2022/01/03 02:50:33;;;;;;;3.83;2.00;;;;;;;-141.59;100.00;61776.25;5041540;28;20206;-90
2022/01/03 02:53:03;;;;;;;2.90;2.10;;;;;;;-141.59;100.00;61776.25;5039937;28;20217;-90
2022/01/03 02:55:32;;;;;;;4.10;2.37;;;;;;;-141.59;100.00;61776.25;5032502;28;20199;-90
2022/01/03 02:58:06;;;;;;;3.13;2.20;;;;;;;-141.59;100.00;61776.25;5022423;28;20203;-89
2022/01/03 03:00:44;;;;;;;4.37;2.27;;;;;;;-141.59;100.00;61776.25;5045161;28;20225;-91
2022/01/03 03:03:12;;;;;;;3.97;2.17;;;;;;;-141.59;100.00;61776.25;5023189;28;20202;-90
2022/01/03 03:05:39;;;;;;;3.07;1.93;;;;;;;-141.59;100.00;61776.25;5066954;28;20201;-89
2022/01/03 03:08:09;;;;;;;4.53;2.20;;;;;;;-141.59;100.00;61776.25;5031771;28;20268;-89
2022/01/03 03:10:37;;;;;;;3.10;2.13;;;;;;;-141.59;100.00;61776.25;5059281;28;20212;-89
2022/01/03 03:13:05;;;;;;;2.77;2.20;;;;;;;-141.59;100.00;61776.25;5031017;28;20290;-90
2022/01/03 03:15:33;;;;;;;2.70;2.23;;;;;;;-141.59;100.00;61776.25;5029042;28;20202;-89
2022/01/03 03:18:04;;;;;;;3.90;2.43;;;;;;;-141.59;100.00;61776.25;5036617;28;20195;-90
2022/01/03 03:20:33;;;;;;;3.20;2.40;;;;;;;-141.59;100.00;61776.25;5030271;28;21189;-89
2022/01/03 03:23:02;;;;;;;3.17;2.30;;;;;;;-141.59;100.00;61776.25;5060591;28;20202;-90
2022/01/03 03:25:35;;;;;;;4.47;2.30;;;;;;;-141.59;100.00;61776.25;5067657;28;20220;-91
2022/01/03 03:28:07;;;;;;;4.10;2.30;;;;;;;-141.59;100.00;61776.25;5027132;28;20202;-90
2022/01/03 03:30:37;;;;;;;4.20;2.53;;;;;;;-141.59;100.00;61776.25;5027873;28;20225;-90
2022/01/03 03:33:09;;;;;;;3.93;2.47;;;;;;;-141.59;100.00;61776.25;5033765;28;20309;-89
2022/01/03 03:35:39;;;;;;;2.43;2.23;;;;;;;-141.59;100.00;61776.25;5065164;28;20288;-89
2022/01/03 03:38:17;;;;;;;3.47;2.50;;;;;;;-141.59;100.00;61776.25;5047850;28;20285;-90
2022/01/03 03:41:07;;;;;;;2.30;1.90;;;;;;;-141.59;100.00;61776.25;5041774;28;20213;-90
2022/01/03 03:43:41;;;;;;;4.73;2.27;;;;;;;-141.59;100.00;61776.25;5036774;28;20203;-89
2022/01/03 03:46:10;;;;;;;3.40;2.20;;;;;;;-141.59;100.00;61776.25;5036702;28;20206;-89
2022/01/03 03:48:39;;;;;;;3.37;1.80;;;;;;;-141.59;100.00;61776.25;5035729;28;20199;-89
2022/01/03 03:51:06;;;;;;;4.37;2.07;;;;;;;-141.59;100.00;61776.25;5031960;28;20199;-90
2022/01/03 03:53:34;;;;;;;3.30;2.20;;;;;;;-141.59;100.00;61776.25;5017963;28;20268;-91
2022/01/03 03:56:04;;;;;;;2.73;2.10;;;;;;;-141.59;100.00;61776.25;5043639;28;20214;-90
2022/01/03 03:58:33;;;;;;;2.80;2.20;;;;;;;-141.59;100.00;61776.25;5034110;28;20199;-89
2022/01/03 04:01:01;;;;;;;5.70;2.03;;;;;;;-141.59;100.00;61776.25;5038109;28;20249;-90
2022/01/03 04:03:28;;;;;;;3.07;2.30;;;;;;;-141.59;100.00;61776.25;5042465;28;20211;-89
2022/01/03 04:05:55;;;;;;;4.73;2.30;;;;;;;-141.59;100.00;61776.25;5022468;28;20253;-91
2022/01/03 04:08:22;;;;;;;2.87;2.30;;;;;;;-141.59;100.00;61776.25;5016109;28;20230;-90
2022/01/03 04:10:50;;;;;;;3.60;2.30;;;;;;;-141.59;100.00;61776.25;5036238;28;20249;-89
2022/01/03 04:13:18;;;;;;;3.57;2.20;;;;;;;-141.59;100.00;61776.25;5020722;28;20249;-90
2022/01/03 04:15:46;;;;;;;2.93;2.23;;;;;;;-141.59;100.00;61776.25;5030667;28;20205;-90
2022/01/03 04:18:13;;;;;;;3.53;2.40;;;;;;;-141.59;100.00;61776.25;5050062;28;20309;-90
2022/01/03 04:20:40;;;;;;;2.53;2.20;;;;;;;-141.59;100.00;61776.25;5015640;28;20198;-89
2022/01/03 04:23:07;;;;;;;4.50;2.30;;;;;;;-141.59;100.00;61776.25;5053779;28;20207;-90
2022/01/03 04:25:34;;;;;;;3.13;2.50;;;;;;;-141.59;100.00;61776.25;5021195;28;20412;-90
2022/01/03 04:28:02;;;;;;;3.30;2.30;;;;;;;-141.59;100.00;61776.25;5039401;28;20282;-90
2022/01/03 04:30:30;;;;;;;3.47;2.27;;;;;;;-141.59;100.00;61776.25;5016293;28;20207;-90
2022/01/03 04:32:58;;;;;;;5.43;2.00;;;;;;;-141.59;100.00;61776.25;5040486;28;20233;-90
2022/01/03 04:35:25;;;;;;;4.07;2.23;;;;;;;-141.59;100.00;61776.25;5024613;28;20210;-90
2022/01/03 04:37:54;;;;;;;2.90;2.20;;;;;;;-141.59;100.00;61776.25;5039683;28;20317;-90
2022/01/03 04:40:21;;;;;;;3.60;2.43;;;;;;;-141.59;100.00;61776.25;5061193;28;20592;-89
2022/01/03 04:42:49;;;;;;;4.83;2.57;;;;;;;-141.59;100.00;61776.25;5057318;28;20213;-90
2022/01/03 04:45:16;;;;;;;2.70;2.23;;;;;;;-141.59;100.00;61776.25;5030574;28;20206;-89
2022/01/03 04:47:45;;;;;;;3.80;2.30;;;;;;;-141.59;100.00;61776.25;5048360;28;20289;-91
2022/01/03 04:50:13;;;;;;;2.93;2.17;;;;;;;-141.59;100.00;61776.25;5032482;28;20293;-89
2022/01/03 04:52:40;;;;;;;3.67;2.47;;;;;;;-141.59;100.00;61776.25;5032318;28;20225;-90
2022/01/03 04:55:08;;;;;;;3.40;2.23;;;;;;;-141.59;100.00;61776.25;5049072;28;20202;-89
2022/01/03 04:57:35;;;;;;;5.70;2.70;;;;;;;-141.59;100.00;61776.25;5032177;28;20213;-89
2022/01/03 05:00:05;;;;;;;4.23;2.20;;;;;;;-141.59;100.00;61776.25;5060530;28;20271;-90
2022/01/03 05:02:33;;;;;;;2.80;2.20;;;;;;;-141.59;100.00;61776.25;5029695;28;20254;-90
2022/01/03 05:05:03;;;;;;;3.90;2.50;;;;;;;-141.59;100.00;61776.25;5028107;28;20207;-90
2022/01/03 05:07:32;;;;;;;3.73;2.10;;;;;;;-141.59;100.00;61776.25;5034026;28;20216;-90
2022/01/03 05:09:59;;;;;;;4.10;2.20;;;;;;;-141.59;100.00;61776.25;5029424;28;20412;-90
2022/01/03 05:12:27;;;;;;;4.37;2.20;;;;;;;-141.59;100.00;61776.25;5058622;28;20229;-90
2022/01/03 05:14:54;;;;;;;3.77;2.10;;;;;;;-141.59;100.00;61776.25;5039234;28;20206;-90
2022/01/03 05:17:21;;;;;;;2.60;2.20;;;;;;;-141.59;100.00;61776.25;5028791;28;20278;-89
2022/01/03 05:19:48;;;;;;;4.03;2.67;;;;;;;-141.59;100.00;61776.25;5034217;28;20209;-88
2022/01/03 05:22:17;;;;;;;2.87;2.20;;;;;;;-141.59;100.00;61776.25;5027963;28;20248;-89
2022/01/03 05:24:45;;;;;;;4.30;2.53;;;;;;;-141.59;100.00;61776.25;5030051;28;20201;-89
2022/01/03 05:27:12;;;;;;;6.07;3.93;;;;;;;-141.59;100.00;61776.25;5026688;28;20210;-89
2022/01/03 05:29:40;;;;;;;11.80;5.67;;;;;;;-141.59;100.00;61776.25;5032294;28;20214;-89
2022/01/03 05:32:08;;;;;;;7.33;5.30;;;;;;;-141.59;100.00;61776.25;5028877;28;20272;-87
2022/01/03 05:34:36;;;;;;;8.83;5.50;;;;;;;-141.59;100.00;61776.25;5023741;28;20233;-88
2022/01/03 05:37:03;;;;;;;13.07;7.10;;;;;;;-141.59;100.00;61776.25;5029028;28;20207;-89
2022/01/03 05:39:34;;;;;;;8.13;6.00;;;;;;;-141.59;100.00;61776.25;5030280;28;20381;-89
2022/01/03 05:42:02;;;;;;;11.27;6.30;;;;;;;-141.59;100.00;61776.25;5028483;28;20283;-89
2022/01/03 05:44:29;;;;;;;9.10;5.73;;;;;;;-141.59;100.00;61776.25;5020444;28;20273;-88
2022/01/03 05:46:57;;;;;;;9.30;5.83;;;;;;;-141.59;100.00;61776.25;5024895;28;20298;-89
2022/01/03 05:49:24;;;;;;;10.30;5.50;;;;;;;-141.59;100.00;61776.25;5038713;28;20210;-89
2022/01/03 05:51:52;;;;;;;9.63;5.50;;;;;;;-141.59;100.00;61776.25;5046349;28;20287;-89
2022/01/03 05:54:19;;;;;;;7.80;5.60;;;;;;;-141.59;100.00;61776.25;5059408;28;20226;-88
2022/01/03 05:56:48;;;;;;;10.43;5.07;;;;;;;-141.59;100.00;61776.25;5044619;28;20225;-88
2022/01/03 05:59:16;;;;;;;10.50;5.27;;;;;;;-141.59;100.00;61776.25;5056989;28;20206;-89
2022/01/03 06:01:43;;;;;;;9.50;5.07;;;;;;;-141.59;100.00;61776.25;5017512;28;20241;-90
2022/01/03 06:04:20;;;;;;;8.50;5.13;;;;;;;-141.59;100.00;61776.25;5066262;28;20260;-88
2022/01/03 06:06:57;;;;;;;8.60;4.37;;;;;;;-141.59;100.00;61776.25;5025907;28;20201;-88
2022/01/03 06:09:32;;;;;;;5.17;3.40;;;;;;;-141.59;100.00;61776.25;5031549;28;20214;-89
2022/01/03 06:12:04;;;;;;;3.23;2.60;;;;;;;-141.59;100.00;61776.25;5034073;28;20203;-88
2022/01/03 06:14:33;;;;;;;5.83;3.27;;;;;;;-141.59;100.00;61776.25;5033829;28;20292;-89
2022/01/03 06:17:01;;;;;;;5.90;3.20;;;;;;;-141.59;100.00;61776.25;5028304;28;20206;-89
2022/01/03 06:19:29;;;;;;;5.47;3.13;;;;;;;-141.59;100.00;61776.25;5062028;28;20199;-89
2022/01/03 06:21:57;;;;;;;5.20;3.00;;;;;;;-141.59;100.00;61776.25;5040380;28;20202;-90
2022/01/03 06:24:26;;;;;;;5.73;3.33;;;;;;;-141.59;100.00;61776.25;5039493;28;20224;-89
2022/01/03 06:26:54;;;;;;;4.43;2.93;;;;;;;-141.59;100.00;61776.25;5023449;28;20204;-90
2022/01/03 06:29:23;;;;;;;5.70;2.90;;;;;;;-141.59;100.00;61776.25;5058873;28;20221;-89
2022/01/03 06:31:51;;;;;;;7.90;3.73;;;;;;;-141.59;100.00;61776.25;5038385;28;20272;-89
2022/01/03 06:34:20;;;;;;;6.97;4.17;;;;;;;-141.59;100.00;61776.25;5061704;28;20312;-89
2022/01/03 06:36:47;;;;;;;5.90;3.60;;;;;;;-141.59;100.00;61776.25;5018633;28;20212;-90
2022/01/03 06:39:15;;;;;;;6.33;3.53;;;;;;;-141.59;100.00;61776.25;5029246;28;20235;-90
2022/01/03 06:41:44;;;;;;;5.43;3.60;;;;;;;-141.59;100.00;61776.25;5054426;28;20198;-90
2022/01/03 06:44:13;;;;;;;8.03;4.87;;;;;;;-141.59;100.00;61776.25;5028175;28;20198;-90
2022/01/03 06:46:42;;;;;;;7.53;4.50;;;;;;;-141.59;100.00;61776.25;5022521;28;20198;-90
2022/01/03 06:49:09;;;;;;;7.43;4.07;;;;;;;-141.59;100.00;61776.25;5046682;28;20193;-90
2022/01/03 06:51:38;;;;;;;6.43;4.10;;;;;;;-141.59;100.00;61776.25;5031834;28;20210;-90
2022/01/03 06:54:11;;;;;;;7.43;3.63;;;;;;;-141.59;100.00;61776.25;5060232;28;20229;-90
2022/01/03 06:56:43;;;;;;;8.17;3.43;;;;;;;-141.59;100.00;61776.25;5062626;28;20231;-91
2022/01/03 06:59:11;;;;;;;4.07;2.80;;;;;;;-141.59;100.00;61776.25;5069203;28;20304;-89
2022/01/03 07:01:38;;;;;;;6.17;2.50;;;;;;;-141.59;100.00;61776.25;5051952;28;20221;-90
2022/01/03 07:04:07;;;;;;;4.00;2.47;;;;;;;-141.59;100.00;61776.25;5028632;28;20210;-90
2022/01/03 07:06:36;;;;;;;4.63;2.57;;;;;;;-141.59;100.00;61776.25;5034612;28;20206;-90
2022/01/03 07:09:05;;;;;;;5.13;2.70;;;;;;;-141.59;100.00;61776.25;5065865;28;20206;-90
2022/01/03 07:11:32;;;;;;;6.70;2.80;;;;;;;-141.59;100.00;61776.25;5065398;28;20374;-90
2022/01/03 07:18:55;;;;;;;4.50;2.70;;;;;;;-141.59;100.00;61776.25;5035983;28;20276;-90
2022/01/03 07:19:38;;;;;;;4.83;3.07;;;;;;;-141.59;100.00;61776.25;5046422;28;20209;-91
2022/01/03 07:22:07;;;;;;;5.30;3.50;;;;;;;-141.59;100.00;61776.25;5046577;28;20208;-90
2022/01/03 07:24:36;;;;;;;7.53;4.13;;;;;;;-141.59;100.00;61776.25;5036938;28;20307;-90
2022/01/03 07:27:05;;;;;;;8.23;4.27;;;;;;;-141.59;100.00;61776.25;5059453;28;20212;-90
2022/01/03 07:29:32;;;;;;;6.00;3.80;;;;;;;-141.59;100.00;61776.25;5031115;28;20207;-90
2022/01/03 07:32:00;;;;;;;8.63;4.23;;;;;;;-141.59;100.00;61776.25;5039327;28;20207;-91
2022/01/03 07:34:28;;;;;;;6.43;3.90;;;;;;;-141.59;100.00;61776.25;5033000;28;20234;-90
2022/01/03 07:36:56;;;;;;;6.50;4.17;;;;;;;-141.59;100.00;61776.25;5031491;28;20635;-90
2022/01/03 07:39:24;;;;;;;6.90;3.97;;;;;;;-141.59;100.00;61776.25;5037374;28;20215;-92
2022/01/03 07:41:51;;;;;;;8.67;4.40;;;;;;;-141.59;100.00;61776.25;5031978;28;20360;-91
2022/01/03 07:44:18;;;;;;;6.90;4.47;;;;;;;-141.59;100.00;61776.25;5032635;28;20445;-90
2022/01/03 07:46:46;;;;;;;5.03;3.37;;;;;;;-141.59;100.00;61776.25;5025007;28;20202;-91
2022/01/03 07:49:13;;;;;;;9.43;3.97;;;;;;;-141.59;100.00;61776.25;5022729;28;20203;-91
2022/01/03 07:51:40;;;;;;;6.60;4.37;;;;;;;-141.59;100.00;61776.25;5032182;28;20210;-91
2022/01/03 07:54:09;;;;;;;9.30;5.37;;;;;;;-141.59;100.00;61776.25;5060695;28;20225;-90
2022/01/03 07:56:36;;;;;;;11.20;5.67;;;;;;;-141.59;100.00;61776.25;5026512;28;20206;-90
2022/01/03 07:59:05;;;;;;;10.07;6.53;;;;;;;-141.59;100.00;61776.25;5035880;28;20301;-90
2022/01/03 08:01:32;;;;;;;8.57;5.40;;;;;;;-141.59;100.00;61776.25;5033291;28;20210;-90
2022/01/03 08:03:59;;;;;;;6.90;4.77;;;;;;;-141.59;100.00;61776.25;5041446;28;20229;-90
2022/01/03 08:06:27;;;;;;;8.37;5.33;;;;;;;-141.59;100.00;61776.25;5037744;28;20251;-91
2022/01/03 08:08:55;;;;;;;6.87;4.30;;;;;;;-141.59;100.00;61776.25;5024018;28;20205;-91
2022/01/03 08:11:23;;;;;;;8.03;4.07;;;;;;;-141.59;100.00;61776.25;5039959;28;20206;-91
2022/01/03 08:13:50;;;;;;;5.20;3.60;;;;;;;-141.59;100.00;61776.25;5035913;28;20548;-91
2022/01/03 08:16:17;;;;;;;5.90;3.13;;;;;;;-141.59;100.00;61776.25;5022232;28;20202;-91
2022/01/03 08:18:44;;;;;;;4.33;3.30;;;;;;;-141.59;100.00;61776.25;5028255;28;20205;-91
2022/01/03 08:21:14;;;;;;;6.40;4.13;;;;;;;-141.59;100.00;61776.25;5054647;28;20212;-90
2022/01/03 08:23:41;;;;;;;6.43;3.57;;;;;;;-141.59;100.00;61776.25;5047017;28;20205;-90
2022/01/03 08:26:08;;;;;;;5.87;3.63;;;;;;;-141.59;100.00;61776.25;5026216;28;20285;-91
2022/01/03 08:28:37;;;;;;;4.37;3.60;;;;;;;-141.59;100.00;61776.25;5027674;28;20207;-91
2022/01/03 08:31:04;;;;;;;7.03;3.80;;;;;;;-141.59;100.00;61776.25;5040940;28;20210;-91
2022/01/03 08:33:33;;;;;;;4.67;3.60;;;;;;;-141.59;100.00;61776.25;5025615;28;20220;-91
2022/01/03 08:36:00;;;;;;;5.53;3.80;;;;;;;-141.59;100.00;61776.25;5042638;28;20229;-91
2022/01/03 08:38:27;;;;;;;5.37;3.90;;;;;;;-141.59;100.00;61776.25;5040308;28;20248;-91
2022/01/03 08:40:55;;;;;;;7.17;3.93;;;;;;;-141.59;100.00;61776.25;5041095;28;20198;-91
2022/01/03 08:43:23;;;;;;;6.00;3.60;;;;;;;-141.59;100.00;61776.25;5064527;28;20218;-91
2022/01/03 08:45:52;;;;;;;5.73;3.30;;;;;;;-141.59;100.00;61776.25;5020329;28;20220;-91
2022/01/03 08:48:19;;;;;;;6.53;3.00;;;;;;;-141.59;100.00;61776.25;5026671;28;20294;-89
2022/01/03 08:50:46;;;;;;;7.30;4.07;;;;;;;-141.59;100.00;61776.25;5042897;28;20281;-90
2022/01/03 08:53:13;;;;;;;7.27;4.33;;;;;;;-141.59;100.00;61776.25;5032567;28;20206;-90
2022/01/03 08:55:41;;;;;;;6.80;4.23;;;;;;;-141.59;100.00;61776.25;5069276;28;20222;-91
2022/01/03 08:58:08;;;;;;;6.30;4.37;;;;;;;-141.59;100.00;61776.25;5047024;28;20210;-90
2022/01/03 09:00:36;;;;;;;8.77;4.77;;;;;;;-141.59;100.00;61776.25;5031937;28;20240;-90
2022/01/03 09:03:04;;;;;;;8.23;4.63;;;;;;;-141.59;100.00;61776.25;5034030;28;20297;-91
2022/01/03 09:05:31;;;;;;;9.03;6.37;;;;;;;-141.59;100.00;61776.25;5020129;28;20194;-89
2022/01/03 09:07:58;;;;;;;8.07;5.50;;;;;;;-141.59;100.00;61776.25;5048533;28;20206;-90
2022/01/03 09:10:26;;;;;;;6.87;4.20;;;;;;;-141.59;100.00;61776.25;5040496;28;20600;-91
2022/01/03 09:12:53;;;;;;;6.03;4.10;;;;;;;-141.59;100.00;61776.25;5067773;28;20321;-89
2022/01/03 09:15:20;;;;;;;10.30;4.87;;;;;;;-141.59;100.00;61776.25;5042970;28;20227;-90
2022/01/03 09:17:48;;;;;;;8.60;4.13;;;;;;;-141.59;100.00;61776.25;5034216;28;20285;-91
2022/01/03 09:20:17;;;;;;;5.67;3.90;;;;;;;-141.59;100.00;61776.25;5038690;28;20204;-90
2022/01/03 09:22:47;;;;;;;7.03;4.53;;;;;;;-141.59;100.00;61776.25;5065396;28;20206;-91
2022/01/03 09:30:50;;;;;;;8.27;4.90;;;;;;;-141.59;100.00;61776.25;5050221;28;20229;-90
2022/01/03 09:33:18;;;;;;;5.50;4.10;;;;;;;-141.59;100.00;61776.25;5061672;28;20198;-91
2022/01/03 09:35:46;;;;;;;5.17;4.20;;;;;;;-141.59;100.00;61776.25;5026561;28;20202;-91
2022/01/03 09:38:14;;;;;;;8.53;5.13;;;;;;;-141.59;100.00;61776.25;5025402;28;20304;-91
2022/01/03 09:40:42;;;;;;;7.47;5.53;;;;;;;-141.59;100.00;61776.25;5045218;28;20226;-91
2022/01/03 09:43:18;;;;;;;7.83;5.70;;;;;;;-141.59;100.00;61776.25;5027028;28;20322;-90
2022/01/03 09:45:54;;;;;;;7.90;5.03;;;;;;;-141.59;100.00;61776.25;5045850;28;20229;-90
2022/01/03 09:48:23;;;;;;;9.50;4.87;;;;;;;-141.59;100.00;61776.25;5022678;28;20272;-90
2022/01/03 09:50:52;;;;;;;5.47;3.83;;;;;;;-141.59;100.00;61776.25;5028590;28;20202;-90
2022/01/03 09:53:20;;;;;;;7.77;5.43;;;;;;;-141.59;100.00;61776.25;5026345;28;20214;-90
2022/01/03 09:55:49;;;;;;;11.93;5.40;;;;;;;-141.59;100.00;61776.25;5044196;28;20229;-90
2022/01/03 09:58:17;;;;;;;7.03;5.00;;;;;;;-141.59;100.00;61776.25;5027139;28;20206;-91
2022/01/03 10:00:44;;;;;;;6.47;4.93;;;;;;;-141.59;100.00;61776.25;5049683;28;20237;-90
2022/01/03 10:03:11;;;;;;;7.07;4.33;;;;;;;-141.59;100.00;61776.25;5025805;28;20206;-90
2022/01/03 10:05:38;;;;;;;6.60;4.50;;;;;;;-141.59;100.00;61776.25;5040808;28;20252;-90
2022/01/03 10:08:07;;;;;;;6.73;4.70;;;;;;;-141.59;100.00;61776.25;5043231;28;20237;-89
2022/01/03 10:10:35;;;;;;;7.03;5.00;;;;;;;-141.59;100.00;61776.25;5026706;28;20201;-90
2022/01/03 10:13:05;;;;;;;7.37;5.00;;;;;;;-141.59;100.00;61776.25;5026299;28;20241;-90
2022/01/03 10:15:35;;;;;;;8.67;5.20;;;;;;;-141.59;100.00;61776.25;5041881;28;20222;-89
2022/01/03 10:18:03;;;;;;;7.07;4.60;;;;;;;-141.59;100.00;61776.25;5039531;28;20201;-91
2022/01/03 10:20:32;;;;;;;7.00;4.33;;;;;;;-141.59;100.00;61776.25;5057108;28;20207;-90
2022/01/03 10:23:12;;;;;;;5.77;4.03;;;;;;;-141.59;100.00;61776.25;5027572;28;20230;-91
2022/01/03 10:25:39;;;;;;;7.90;4.40;;;;;;;-141.59;100.00;61776.25;5030089;28;20225;-91
2022/01/03 10:28:06;;;;;;;8.80;4.73;;;;;;;-141.59;100.00;61776.25;5025131;28;20209;-90
2022/01/03 10:30:38;;;;;;;7.10;4.20;;;;;;;-141.59;100.00;61776.25;5030585;28;20210;-90
2022/01/03 10:33:07;;;;;;;7.80;5.13;;;;;;;-141.59;100.00;61776.25;5027084;28;20229;-90
2022/01/03 10:35:40;;;;;;;8.03;5.53;;;;;;;-141.59;100.00;61776.25;5035015;28;20312;-90
2022/01/03 10:38:08;;;;;;;5.53;4.47;;;;;;;-141.59;100.00;61776.25;5033381;28;20225;-91
2022/01/03 10:40:38;;;;;;;9.30;4.80;;;;;;;-141.59;100.00;61776.25;5063396;28;20417;-90
2022/01/03 10:43:15;;;;;;;7.00;4.67;;;;;;;-141.59;100.00;61776.25;5028366;28;20206;-90
2022/01/03 10:45:43;;;;;;;7.00;4.37;;;;;;;-141.59;100.00;61776.25;5036950;28;20201;-90
2022/01/03 10:48:30;;;;;;;6.40;4.27;;;;;;;-141.59;100.00;61776.25;5047991;28;20202;-90
2022/01/03 10:51:00;;;;;;;8.73;4.10;;;;;;;-141.59;100.00;61776.25;5058357;28;20206;-90
2022/01/03 10:53:35;;;;;;;7.53;4.00;;;;;;;-141.59;100.00;61776.25;5044724;28;20238;-90
2022/01/03 10:56:23;;;;;;;7.40;3.90;;;;;;;-141.59;100.00;61776.25;5035832;28;20270;-90
2022/01/03 10:58:51;;;;;;;5.40;4.03;;;;;;;-141.59;100.00;61776.25;5045166;28;20305;-90
2022/01/03 11:01:21;;;;;;;6.90;3.80;;;;;;;-141.59;100.00;61776.25;5045086;28;20552;-90
2022/01/03 11:03:48;;;;;;;6.07;4.43;;;;;;;-141.59;100.00;61776.25;5055240;28;20301;-90
2022/01/03 11:06:24;;;;;;;6.50;4.17;;;;;;;-141.59;100.00;61776.25;5059505;28;20210;-90
2022/01/03 11:11:41;;;;;;;5.97;3.73;;;;;;;-141.59;100.00;61776.25;5023562;28;20215;-90
2022/01/03 11:14:30;;;;;;;7.37;4.43;;;;;;;-141.59;100.00;61776.25;5047458;28;20300;-90
2022/01/03 11:17:04;;;;;;;7.07;4.03;;;;;;;-141.59;100.00;61776.25;5040222;28;20217;-90
2022/01/03 11:19:36;;;;;;;8.23;4.53;;;;;;;-141.59;100.00;61776.25;5040287;28;20213;-90
2022/01/03 11:22:04;;;;;;;8.47;5.00;;;;;;;-141.59;100.00;61776.25;5037938;28;20505;-90
2022/01/03 11:24:31;;;;;;;8.13;4.40;;;;;;;-141.59;100.00;61776.25;5026409;28;20293;-91
2022/01/03 11:27:00;;;;;;;6.63;4.30;;;;;;;-141.59;100.00;61776.25;5040774;28;20227;-91
2022/01/03 11:29:29;;;;;;;5.60;3.27;;;;;;;-141.59;100.00;61776.25;5064742;28;20214;-91
2022/01/03 11:31:59;;;;;;;8.47;3.70;;;;;;;-141.59;100.00;61776.25;5026596;28;20214;-90
2022/01/03 11:34:26;;;;;;;6.03;4.10;;;;;;;-141.59;100.00;61776.25;5040120;28;20222;-91